KSQL/SQL METAR and TAF weather

Enter ICAO airport designator
Station Type Date Time Source
KSQL METAR 2020/07/04 01:47 UTC NOAA

KSQL 040147Z 26010KT 10SM SKC 22/07 A3002


Station Type Date Time Source
KSQL Decoded METAR 2020/07/04 01:47 UTC NOAA

San Carlos Airport, CA, United States (KSQL) 37-31N 122-15W
Jul 03, 2020 - 09:47 PM EDT / 2020.07.04 0147 UTC
Wind: from the W (260 degrees) at 12 MPH (10 KT):0
Visibility: 10 mile(s):0
Sky conditions: clear
Temperature: 71 F (22 C)
Dew Point: 44 F (7 C)
Relative Humidity: 37%
Pressure (altimeter): 30.02 in. Hg (1016 hPa)
ob: KSQL 040147Z 26010KT 10SM SKC 22/07 A3002
cycle: 2

Station Type Date Time Source
KSQL TAF UTC NOAA

Error!

Example: see airport list